Time;durP1;ratioP1;P1;durP2;ratioP2;P2;SDS_P1;SDS_P2;PMS_P1;PMS_P2;Temp;Humidity;BMP_temperature;BMP_pressure;BME280_temperature;BME280_humidity;BME280_pressure;Samples;Min_cycle;Max_cycle;Signal;HPM_P1;HPM_P2
2022/03/23 00:01:54;;;;;;;;;53.25;38.50;;;;;14.97;35.33;102230.16;5035439;28;45140;-71
2022/03/23 00:04:20;;;;;;;;;50.50;39.50;;;;;15.38;35.22;102297.88;5032142;28;44994;-72
2022/03/23 00:06:45;;;;;;;;;47.50;38.00;;;;;15.42;35.29;102318.63;5031510;28;45364;-73
2022/03/23 00:09:12;;;;;;;;;51.50;40.00;;;;;15.29;35.37;102291.31;5034913;28;45250;-71
2022/03/23 00:11:37;;;;;;;;;48.75;39.25;;;;;15.38;35.23;102308.63;5034703;28;45203;-72
2022/03/23 00:14:05;;;;;;;;;47.25;38.50;;;;;15.36;35.59;102322.06;5016975;28;45098;-72
2022/03/23 00:16:30;;;;;;;;;54.25;40.50;;;;;15.09;35.42;102270.91;5041164;28;45351;-72
2022/03/23 00:18:56;;;;;;;;;50.75;37.00;;;;;15.21;35.42;102303.63;5035649;28;45156;-72
2022/03/23 00:21:22;;;;;;;;;48.75;38.50;;;;;15.17;34.92;102298.09;5045900;28;45436;-72
2022/03/23 00:23:47;;;;;;;;;50.00;37.00;;;;;15.24;35.77;102313.56;5046059;28;45087;-70
2022/03/23 00:26:12;;;;;;;;;50.00;38.50;;;;;15.29;35.21;102328.09;5043017;28;45086;-72
2022/03/23 00:28:38;;;;;;;;;48.50;38.75;;;;;15.27;35.28;102330.72;5036248;28;45798;-71
2022/03/23 00:31:03;;;;;;;;;46.75;36.50;;;;;15.26;35.26;102334.31;5045864;28;44939;-71
2022/03/23 00:33:29;;;;;;;;;50.75;38.25;;;;;15.11;35.30;102312.25;5036205;28;45467;-71
2022/03/23 00:35:55;;;;;;;;;46.50;36.25;;;;;15.22;35.44;102332.34;5039215;28;45486;-72
2022/03/23 00:38:22;;;;;;;;;42.00;35.50;;;;;15.01;35.03;102297.56;5032220;28;46397;-71
2022/03/23 00:40:47;;;;;;;;;43.25;35.00;;;;;15.09;35.08;102314.88;5032218;28;45197;-73
2022/03/23 00:43:13;;;;;;;;;46.75;36.00;;;;;15.19;35.05;102326.88;5033793;28;45086;-71
2022/03/23 00:45:40;;;;;;;;;47.00;38.25;;;;;14.95;34.99;102294.69;5032939;28;45211;-72
2022/03/23 00:48:05;;;;;;;;;50.00;38.75;;;;;15.19;34.48;102328.66;5049275;28;45117;-71
2022/03/23 00:50:31;;;;;;;;;52.25;43.00;;;;;15.18;34.84;102330.44;5053026;28;45131;-72
2022/03/23 00:52:56;;;;;;;;;49.75;39.00;;;;;14.97;34.79;102298.34;5052903;28;45312;-70
2022/03/23 00:55:22;;;;;;;;;37.50;33.50;;;;;15.12;34.82;102332.94;5053038;28;44940;-71
2022/03/23 00:57:48;;;;;;;;;47.50;36.25;;;;;14.98;34.51;102302.88;5052387;28;45624;-72
2022/03/23 01:00:17;;;;;;;;;45.50;32.75;;;;;14.84;34.57;102283.56;5051976;28;45085;-71
2022/03/23 01:02:45;;;;;;;;;42.75;32.50;;;;;14.95;34.59;102300.06;5031489;28;45167;-71
2022/03/23 01:05:12;;;;;;;;;42.75;33.75;;;;;14.88;34.27;102293.56;5034549;28;45212;-71
2022/03/23 01:07:38;;;;;;;;;30.50;21.00;;;;;15.09;34.67;102333.72;5033335;28;46101;-72
2022/03/23 01:10:06;;;;;;;;;47.00;36.00;;;;;15.08;34.51;102331.00;5032186;28;45292;-71
2022/03/23 01:12:31;;;;;;;;;45.75;33.00;;;;;14.89;33.86;102314.22;5032470;28;45081;-72
2022/03/23 01:14:57;;;;;;;;;38.75;33.00;;;;;14.87;34.24;102324.03;5038888;28;45073;-71
2022/03/23 01:17:23;;;;;;;;;40.00;33.50;;;;;14.83;33.98;102308.66;5051760;28;45434;-71
2022/03/23 01:19:49;;;;;;;;;44.25;33.50;;;;;14.81;34.06;102321.13;5045796;28;45216;-71
2022/03/23 01:22:14;;;;;;;;;39.75;32.75;;;;;14.76;34.55;102333.50;5053349;28;45176;-71
2022/03/23 01:24:39;;;;;;;;;40.75;33.50;;;;;14.71;34.54;102330.66;5053124;28;45061;-71
2022/03/23 01:27:05;;;;;;;;;38.00;34.00;;;;;14.71;34.50;102338.72;5051517;28;45603;-70
2022/03/23 01:29:30;;;;;;;;;46.00;37.00;;;;;14.69;34.77;102323.41;5052473;28;45090;-72
2022/03/23 01:31:56;;;;;;;;;48.00;34.50;;;;;14.69;34.38;102331.47;5035750;28;45200;-70
2022/03/23 01:34:21;;;;;;;;;45.75;33.75;;;;;14.65;34.55;102326.81;5047064;28;45387;-70
2022/03/23 01:36:46;;;;;;;;;41.50;33.25;;;;;14.64;34.41;102330.41;5040800;28;45062;-70
2022/03/23 01:39:12;;;;;;;;;45.25;36.00;;;;;14.60;34.57;102329.38;5039479;28;45078;-71
2022/03/23 01:41:39;;;;;;;;;52.00;38.25;;;;;14.55;34.54;102334.56;5033718;28;44915;-72
2022/03/23 01:44:21;;;;;;;;;35.00;30.75;;;;;14.49;34.83;102312.81;5037045;28;45061;-71
2022/03/23 01:47:06;;;;;;;;;44.00;36.00;;;;;14.44;34.80;102329.66;5033216;28;45844;-71
2022/03/23 01:49:33;;;;;;;;;37.25;33.75;;;;;14.45;34.51;102318.03;5046592;28;45048;-71
2022/03/23 01:51:59;;;;;;;;;48.75;35.50;;;;;14.45;34.70;102329.72;5051445;28;45100;-71
2022/03/23 01:54:24;;;;;;;;;42.25;34.00;;;;;14.38;34.60;102301.66;5044896;28;45146;-71
2022/03/23 01:56:50;;;;;;;;;45.25;34.75;;;;;14.18;34.26;102281.22;5046393;28;45578;-70
2022/03/23 01:59:17;;;;;;;;;45.50;34.75;;;;;14.34;34.73;102321.25;5052181;28;45056;-72
2022/03/23 02:01:43;;;;;;;;;47.25;36.00;;;;;14.04;35.10;102280.75;5038686;28;45203;-72
2022/03/23 02:04:09;;;;;;;;;44.50;35.75;;;;;14.25;34.71;102315.53;5042504;28;45215;-70
2022/03/23 02:06:35;;;;;;;;;39.50;34.00;;;;;14.10;34.64;102282.72;5037838;28;45410;-71
2022/03/23 02:09:00;;;;;;;;;39.25;31.75;;;;;13.99;34.64;102274.25;5031414;28;45253;-71
2022/03/23 02:11:27;;;;;;;;;41.00;33.50;;;;;14.04;34.40;102294.19;5033219;28;45165;-70
2022/03/23 02:13:53;;;;;;;;;43.75;35.25;;;;;14.07;34.83;102318.44;5033276;28;44909;-71
2022/03/23 02:16:19;;;;;;;;;44.25;34.25;;;;;14.01;35.07;102304.81;5032924;28;45789;-71
2022/03/23 02:18:44;;;;;;;;;47.50;34.50;;;;;14.04;35.05;102321.06;5032843;28;45099;-70
2022/03/23 02:21:14;;;;;;;;;41.00;32.75;;;;;14.10;35.09;102321.25;5034790;28;45148;-72
2022/03/23 02:23:39;;;;;;;;;37.50;31.00;;;;;14.04;34.19;102321.06;5033183;28;45085;-71
2022/03/23 02:26:06;;;;;;;;;38.00;33.50;;;;;13.81;34.98;102288.84;5032261;28;45693;-71
2022/03/23 02:28:31;;;;;;;;;38.00;31.00;;;;;13.90;35.40;102316.91;5031268;28;45047;-70
2022/03/23 02:30:58;;;;;;;;;40.75;32.00;;;;;13.87;35.09;102319.50;5030213;28;45180;-71
2022/03/23 02:33:23;;;;;;;;;42.75;33.50;;;;;13.77;35.29;102305.69;5030769;28;45385;-71
2022/03/23 02:35:49;;;;;;;;;35.75;30.25;;;;;13.83;35.08;102318.47;5030879;28;45053;-71
2022/03/23 02:38:17;;;;;;;;;33.25;29.75;;;;;13.88;35.37;102321.34;5029424;28;45371;-71
2022/03/23 02:40:44;;;;;;;;;30.75;28.75;;;;;13.80;34.72;102321.03;5030605;28;45229;-71
2022/03/23 02:43:09;;;;;;;;;33.25;31.75;;;;;13.63;34.96;102304.28;5031964;28;45012;-71
2022/03/23 02:45:35;;;;;;;;;36.75;31.75;;;;;13.45;34.50;102289.25;5045478;28;45564;-71
2022/03/23 02:48:00;;;;;;;;;40.75;34.75;;;;;13.53;34.88;102304.75;5036956;28;44934;-72
2022/03/23 02:50:26;;;;;;;;;39.00;33.50;;;;;13.50;34.86;102304.66;5040492;28;45156;-70
2022/03/23 03:01:57;;;;;;;;;42.75;34.25;;;;;13.53;35.27;102336.97;5043621;28;45021;-72
2022/03/23 03:04:23;;;;;;;;;43.25;32.75;;;;;13.52;34.50;102338.75;5027377;28;45237;-71
2022/03/23 03:06:50;;;;;;;;;43.50;34.00;;;;;13.30;35.09;102302.03;5050045;28;45588;-72
2022/03/23 03:09:15;;;;;;;;;33.75;31.00;;;;;13.40;34.64;102327.53;5032475;28;45018;-72
2022/03/23 03:11:45;;;;;;;;;40.25;31.75;;;;;13.23;35.40;102297.25;5044582;28;44981;-70
2022/03/23 03:14:13;;;;;;;;;40.00;29.75;;;;;13.32;35.49;102320.91;5044994;28;45127;-72
2022/03/23 03:16:39;;;;;;;;;45.00;31.50;;;;;13.26;34.43;102319.81;5047858;28;48212;-71
2022/03/23 03:19:05;;;;;;;;;32.75;24.75;;;;;13.13;34.42;102308.47;5043651;28;45099;-71
2022/03/23 03:21:32;;;;;;;;;41.50;26.50;;;;;13.24;34.44;102342.97;5035701;28;45288;-70
2022/03/23 03:23:58;;;;;;;;;33.50;29.00;;;;;13.27;34.64;102352.91;5037482;28;44982;-71
2022/03/23 03:26:24;;;;;;;;;35.25;30.75;;;;;12.90;34.54;102287.91;5043031;28;45597;-71
2022/03/23 03:28:50;;;;;;;;;35.00;31.50;;;;;13.22;35.05;102328.56;5036441;28;45304;-71
2022/03/23 03:31:15;;;;;;;;;36.50;29.25;;;;;13.26;34.91;102356.44;5042491;28;45215;-70
2022/03/23 03:33:41;;;;;;;;;31.25;26.75;;;;;13.14;33.95;102369.38;5049439;28;46289;-71
2022/03/23 03:36:08;;;;;;;;;27.25;23.25;;;;;13.15;34.78;102366.75;5042168;28;45167;-71
2022/03/23 03:38:34;;;;;;;;;41.25;31.00;;;;;13.14;34.96;102370.28;5031118;28;44946;-71
2022/03/23 03:41:01;;;;;;;;;26.50;25.00;;;;;13.17;34.46;102375.78;5032323;28;45495;-70
2022/03/23 03:43:27;;;;;;;;;33.25;29.75;;;;;12.97;34.21;102340.06;5033021;28;45269;-71
2022/03/23 03:45:53;;;;;;;;;32.50;29.50;;;;;12.89;34.35;102330.78;5032648;28;45391;-71
2022/03/23 03:48:19;;;;;;;;;29.75;26.50;;;;;13.12;34.64;102365.72;5037453;28;45347;-71
2022/03/23 03:50:45;;;;;;;;;38.75;27.75;;;;;13.00;33.96;102355.34;5045067;28;45147;-71
2022/03/23 03:53:10;;;;;;;;;27.75;27.50;;;;;12.98;35.44;102368.69;5043270;28;45151;-71
2022/03/23 03:55:36;;;;;;;;;32.75;26.75;;;;;13.05;34.03;102376.19;5034893;28;45474;-72
2022/03/23 03:58:03;;;;;;;;;26.00;22.25;;;;;13.10;34.59;102384.44;5035044;28;45160;-71
2022/03/23 04:00:29;;;;;;;;;26.00;24.25;;;;;13.09;34.39;102386.16;5035777;28;45085;-71
2022/03/23 04:02:54;;;;;;;;;26.75;24.50;;;;;13.04;34.20;102385.06;5035301;28;44964;-70
2022/03/23 04:05:20;;;;;;;;;31.50;26.75;;;;;12.85;34.74;102356.56;5054311;28;45589;-71
2022/03/23 04:07:45;;;;;;;;;26.75;24.50;;;;;12.98;34.71;102389.25;5036089;28;45165;-71
2022/03/23 04:10:10;;;;;;;;;29.75;22.50;;;;;12.87;34.87;102367.34;5053977;28;45245;-71
2022/03/23 04:12:36;;;;;;;;;30.75;27.50;;;;;12.88;35.33;102366.47;5054408;28;45104;-71
2022/03/23 04:15:02;;;;;;;;;23.25;21.75;;;;;13.01;33.92;102392.06;5054081;28;49721;-71
2022/03/23 04:17:27;;;;;;;;;28.25;23.50;;;;;12.88;34.17;102388.84;5034918;28;45276;-71
2022/03/23 04:19:52;;;;;;;;;36.00;27.00;;;;;12.90;34.37;102395.22;5052628;28;45441;-70
2022/03/23 04:22:18;;;;;;;;;25.50;24.25;;;;;12.81;34.23;102385.84;5026733;28;45235;-71
2022/03/23 04:24:43;;;;;;;;;27.25;25.25;;;;;12.94;34.15;102406.09;5040437;28;45508;-71
2022/03/23 04:27:08;;;;;;;;;26.50;24.50;;;;;12.85;35.00;102390.47;5034042;28;45282;-71
2022/03/23 04:29:34;;;;;;;;;27.50;24.75;;;;;12.88;34.40;102406.72;5032663;28;45456;-72
2022/03/23 04:31:59;;;;;;;;;23.00;22.25;;;;;12.73;34.86;102396.22;5032740;28;45373;-71
2022/03/23 04:34:25;;;;;;;;;23.00;21.25;;;;;12.64;34.13;102377.97;5027845;28;45243;-70
2022/03/23 04:36:51;;;;;;;;;28.75;26.25;;;;;12.52;34.21;102362.28;5039353;28;45361;-72
2022/03/23 04:39:16;;;;;;;;;26.75;24.25;;;;;12.61;34.03;102376.94;5034913;28;44979;-71
2022/03/23 04:41:42;;;;;;;;;38.00;33.75;;;;;12.62;34.16;102370.72;5035572;28;44900;-71
2022/03/23 04:44:07;;;;;;;;;43.75;36.00;;;;;12.75;34.05;102410.63;5034176;28;45825;-71
2022/03/23 04:46:32;;;;;;;;;30.50;25.75;;;;;12.72;33.84;102411.41;5034385;28;44976;-72
2022/03/23 04:48:58;;;;;;;;;62.00;47.00;;;;;12.56;34.34;102391.91;5043797;28;45189;-71
2022/03/23 04:51:23;;;;;;;;;29.75;26.75;;;;;12.69;34.39;102415.75;5051077;28;44962;-70
2022/03/23 04:53:49;;;;;;;;;56.50;44.50;;;;;12.61;34.37;102415.38;5033558;28;45464;-70
2022/03/23 04:56:14;;;;;;;;;32.75;28.25;;;;;12.69;35.26;102424.69;5036491;28;45554;-71
2022/03/23 04:58:42;;;;;;;;;49.50;34.00;;;;;12.62;35.03;102408.25;5046031;28;44848;-72
2022/03/23 05:01:08;;;;;;;;;31.75;25.50;;;;;12.67;35.39;102420.09;5052597;28;45295;-72
2022/03/23 05:03:34;;;;;;;;;35.00;29.00;;;;;12.54;34.77;102391.84;5051094;28;45662;-72
2022/03/23 05:05:59;;;;;;;;;29.00;27.00;;;;;12.44;35.22;102378.84;5052045;28;45326;-72
2022/03/23 05:08:25;;;;;;;;;31.75;23.75;;;;;12.48;34.43;102388.88;5035159;28;45044;-70
2022/03/23 05:10:51;;;;;;;;;26.25;23.25;;;;;12.57;34.82;102401.75;5034540;28;45206;-71
2022/03/23 05:13:17;;;;;;;;;37.25;30.75;;;;;12.63;34.51;102419.03;5016090;28;45822;-72
2022/03/23 05:15:42;;;;;;;;;32.25;26.25;;;;;12.66;34.49;102421.88;5033902;28;45398;-72
2022/03/23 05:18:07;;;;;;;;;31.75;28.50;;;;;12.38;34.68;102362.50;5033774;28;45023;-71
2022/03/23 05:20:33;;;;;;;;;27.25;23.25;;;;;12.72;34.82;102427.50;5034058;28;45144;-71
2022/03/23 05:22:58;;;;;;;;;27.00;24.00;;;;;12.43;34.05;102367.22;5041754;28;45837;-71
2022/03/23 05:25:24;;;;;;;;;33.50;27.25;;;;;12.49;34.70;102371.94;5052330;28;48000;-71
2022/03/23 05:27:49;;;;;;;;;34.25;28.00;;;;;12.59;34.09;102389.34;5051453;28;44939;-71
2022/03/23 05:30:15;;;;;;;;;42.25;34.25;;;;;12.78;36.57;102424.16;5048207;28;45080;-72
2022/03/23 05:32:41;;;;;;;;;71.00;56.50;;;;;12.64;35.12;102403.91;5032714;28;46052;-71
2022/03/23 05:35:08;;;;;;;;;37.50;30.50;;;;;12.81;34.37;102421.63;5032147;28;45094;-72
2022/03/23 05:37:34;;;;;;;;;28.75;22.50;;;;;12.83;35.03;102429.75;5036983;28;45260;-72
2022/03/23 05:40:04;;;;;;;;;34.50;29.00;;;;;12.69;34.23;102410.38;5039124;28;45038;-71
2022/03/23 05:42:30;;;;;;;;;41.75;36.00;;;;;12.83;35.53;102430.66;5036746;28;45822;-72
2022/03/23 05:44:55;;;;;;;;;37.25;31.75;;;;;12.87;34.84;102437.09;5034624;28;45101;-71
2022/03/23 05:47:21;;;;;;;;;61.25;46.75;;;;;12.90;35.57;102432.78;5048569;28;45171;-72
2022/03/23 05:49:47;;;;;;;;;35.75;30.75;;;;;12.61;34.86;102375.16;5044880;28;45243;-71
2022/03/23 05:52:12;;;;;;;;;40.75;33.00;;;;;12.65;34.98;102373.53;5032797;28;45666;-70
2022/03/23 05:54:38;;;;;;;;;27.00;23.75;;;;;12.93;34.71;102426.59;5040870;28;45340;-71
2022/03/23 05:57:03;;;;;;;;;26.25;24.00;;;;;12.79;34.49;102406.34;5051965;28;45211;-71
2022/03/23 05:59:30;;;;;;;;;190.50;170.50;;;;;12.69;34.90;102396.97;5052329;28;45457;-72
2022/03/23 06:01:57;;;;;;;;;45.75;36.75;;;;;12.95;35.61;102434.72;5057138;28;45633;-72
2022/03/23 06:04:22;;;;;;;;;33.25;26.75;;;;;12.96;35.53;102426.75;5034495;28;45137;-71
2022/03/23 06:06:48;;;;;;;;;32.50;30.50;;;;;12.98;35.40;102433.09;5048415;28;45116;-72
2022/03/23 06:09:13;;;;;;;;;22.25;22.25;;;;;12.72;35.18;102381.91;5036720;28;45309;-71
2022/03/23 06:11:39;;;;;;;;;24.25;24.25;;;;;12.98;36.08;102421.44;5042589;28;45286;-71
2022/03/23 06:14:05;;;;;;;;;27.75;25.00;;;;;13.00;35.89;102425.09;5038260;28;45306;-72
2022/03/23 06:16:30;;;;;;;;;39.00;33.00;;;;;12.82;36.22;102385.91;5032814;28;45212;-71
2022/03/23 06:18:55;;;;;;;;;43.50;31.00;;;;;13.09;35.09;102446.97;5033117;28;45157;-71
2022/03/23 06:21:22;;;;;;;;;36.75;32.00;;;;;13.01;34.59;102438.59;5035443;28;45165;-71
2022/03/23 06:23:47;;;;;;;;;52.25;39.75;;;;;12.80;34.77;102406.41;5039184;28;45196;-71
2022/03/23 06:26:12;;;;;;;;;48.75;40.50;;;;;12.52;35.53;102359.59;5032617;28;45184;-72
2022/03/23 06:28:38;;;;;;;;;46.25;37.25;;;;;13.03;35.23;102454.75;5043796;28;45066;-71
2022/03/23 06:31:03;;;;;;;;;88.25;79.50;;;;;12.99;36.05;102451.03;5049139;28;45158;-71
2022/03/23 06:33:29;;;;;;;;;46.75;40.25;;;;;13.04;35.60;102470.94;5048386;28;46254;-72
2022/03/23 06:35:54;;;;;;;;;33.25;27.75;;;;;13.02;34.81;102469.03;5041927;28;45402;-71
2022/03/23 06:38:20;;;;;;;;;46.50;34.50;;;;;12.85;35.91;102433.41;5035844;28;45172;-71
2022/03/23 06:40:45;;;;;;;;;37.50;32.00;;;;;12.99;36.47;102463.53;5033771;28;45172;-72
2022/03/23 06:43:11;;;;;;;;;55.50;44.00;;;;;12.86;37.05;102449.56;5034100;28;45236;-73
2022/03/23 06:45:40;;;;;;;;;45.50;35.00;;;;;13.04;36.65;102481.66;5033060;28;45188;-72
2022/03/23 06:48:06;;;;;;;;;63.00;47.50;;;;;12.91;35.85;102465.88;5033392;28;44995;-72
2022/03/23 06:50:31;;;;;;;;;34.25;32.25;;;;;12.90;35.87;102480.13;5034802;28;45159;-71
2022/03/23 06:52:56;;;;;;;;;55.75;42.50;;;;;12.63;35.51;102455.69;5029767;28;45241;-72
2022/03/23 06:55:22;;;;;;;;;41.75;30.50;;;;;12.81;36.69;102482.41;5035732;28;45144;-72
2022/03/23 06:57:47;;;;;;;;;37.00;30.75;;;;;12.69;35.96;102472.06;5032056;28;45057;-70
2022/03/23 07:00:13;;;;;;;;;37.00;27.75;;;;;12.64;36.13;102477.19;5050622;28;45727;-71
2022/03/23 07:02:49;;;;;;;;;44.25;35.75;;;;;12.42;35.90;102459.19;5038766;28;45344;-72
2022/03/23 07:05:16;;;;;;;;;37.25;29.50;;;;;12.40;36.26;102457.31;5032300;28;45302;-71
2022/03/23 07:09:31;;;;;;;;;42.00;31.75;;;;;12.48;35.93;102499.69;5010025;28;45143;-69
2022/03/23 07:10:29;;;;;;;;;39.25;34.00;;;;;12.12;36.92;102453.31;5049526;28;45799;-71
2022/03/23 07:12:55;;;;;;;;;38.75;32.75;;;;;12.40;36.87;102500.19;5039444;28;45041;-71
2022/03/23 07:15:21;;;;;;;;;33.00;29.50;;;;;12.30;36.35;102482.75;5047238;28;45309;-71
2022/03/23 07:17:47;;;;;;;;;35.00;30.75;;;;;12.10;36.99;102468.41;5053623;28;45144;-72
2022/03/23 07:20:12;;;;;;;;;36.75;31.00;;;;;12.29;36.33;102502.34;5054603;28;45727;-70
2022/03/23 07:22:37;;;;;;;;;38.25;29.50;;;;;12.12;36.80;102470.31;5054322;28;45138;-71
2022/03/23 07:25:05;;;;;;;;;38.25;32.50;;;;;12.38;37.09;102502.78;5053976;28;45164;-71
2022/03/23 07:27:30;;;;;;;;;36.25;30.50;;;;;12.44;35.90;102512.88;5054833;28;44986;-71
2022/03/23 07:29:56;;;;;;;;;36.25;32.00;;;;;12.41;36.56;102510.06;5033156;28;47007;-71
2022/03/23 07:32:21;;;;;;;;;27.25;26.75;;;;;12.32;36.51;102499.81;5034718;28;45077;-71
2022/03/23 07:34:46;;;;;;;;;36.00;32.00;;;;;12.45;36.43;102514.72;5045088;28;45179;-71
2022/03/23 07:37:12;;;;;;;;;82.50;70.75;;;;;12.57;36.70;102515.28;5039256;28;45080;-70
2022/03/23 07:39:37;;;;;;;;;36.25;31.75;;;;;12.56;36.52;102483.97;5031186;28;46379;-71
2022/03/23 07:42:03;;;;;;;;;33.75;31.25;;;;;12.73;35.19;102496.38;5034601;28;45302;-72
2022/03/23 07:44:32;;;;;;;;;35.50;31.50;;;;;12.96;35.78;102523.34;5034900;28;45205;-71
2022/03/23 07:46:58;;;;;;;;;58.50;44.00;;;;;12.93;35.92;102496.34;5041837;28;45109;-72
2022/03/23 07:49:23;;;;;;;;;48.25;37.50;;;;;13.03;35.15;102508.41;5052347;28;45488;-71
2022/03/23 07:51:48;;;;;;;;;36.25;30.50;;;;;13.11;34.39;102511.47;5039986;28;45009;-71
2022/03/23 07:54:14;;;;;;;;;34.25;30.75;;;;;13.15;34.48;102517.03;5034067;28;44962;-71
2022/03/23 07:56:39;;;;;;;;;42.75;35.75;;;;;13.12;34.89;102514.22;5032786;28;45501;-71
2022/03/23 07:59:05;;;;;;;;;30.50;27.75;;;;;13.01;34.21;102504.75;5031721;28;45577;-73
2022/03/23 08:01:31;;;;;;;;;33.75;30.00;;;;;12.49;34.25;102423.78;5028172;28;45781;-72
2022/03/23 08:03:56;;;;;;;;;32.25;30.25;;;;;13.15;34.87;102538.50;5034336;28;45416;-71
2022/03/23 08:06:21;;;;;;;;;31.75;28.25;;;;;13.24;34.43;102536.22;5011445;28;45542;-72
2022/03/23 08:08:47;;;;;;;;;39.25;32.00;;;;;13.27;34.30;102530.06;5030891;28;45840;-72
2022/03/23 08:11:12;;;;;;;;;32.00;28.00;;;;;13.28;33.56;102534.56;5030646;28;45645;-73
2022/03/23 08:13:38;;;;;;;;;31.50;26.75;;;;;13.01;34.18;102497.63;5026305;28;45736;-72
2022/03/23 08:16:05;;;;;;;;;32.75;29.75;;;;;13.12;34.38;102507.94;5029799;28;45472;-72
2022/03/23 08:18:32;;;;;;;;;41.75;36.75;;;;;13.35;34.17;102536.72;5034176;28;46357;-72
2022/03/23 08:20:58;;;;;;;;;36.50;34.00;;;;;13.49;34.37;102533.72;5035331;28;45718;-72
2022/03/23 08:23:25;;;;;;;;;41.50;35.75;;;;;13.48;33.71;102511.34;5023881;28;45606;-72
2022/03/23 08:25:51;;;;;;;;;39.75;30.75;;;;;13.62;33.55;102533.41;5020453;28;45645;-72
2022/03/23 08:28:17;;;;;;;;;35.75;32.75;;;;;13.72;34.33;102543.66;5030864;28;47236;-72
2022/03/23 08:30:43;;;;;;;;;36.75;33.50;;;;;13.75;34.03;102540.22;5023035;28;45303;-71
2022/03/23 08:33:09;;;;;;;;;45.25;34.00;;;;;13.94;33.68;102547.25;5033399;28;45361;-71
2022/03/23 08:35:36;;;;;;;;;45.00;33.25;;;;;13.90;33.70;102531.88;5032171;28;45524;-72
2022/03/23 08:38:01;;;;;;;;;37.25;28.75;;;;;13.80;33.87;102509.97;5016104;28;47006;-73
2022/03/23 08:40:27;;;;;;;;;38.50;32.25;;;;;14.03;32.81;102544.97;5024264;28;45596;-71
2022/03/23 08:42:52;;;;;;;;;35.00;31.75;;;;;13.99;33.26;102543.91;5016364;28;46132;-72
2022/03/23 08:45:18;;;;;;;;;41.75;33.25;;;;;13.74;33.46;102487.31;5018046;28;45505;-72
2022/03/23 08:47:44;;;;;;;;;43.00;34.00;;;;;13.83;32.70;102504.75;5026725;28;45460;-72
2022/03/23 08:50:11;;;;;;;;;42.00;32.50;;;;;14.10;32.95;102554.19;5011855;28;45635;-72
2022/03/23 08:52:38;;;;;;;;;35.50;32.75;;;;;14.15;32.96;102548.13;5031906;28;45504;-72
2022/03/23 08:55:05;;;;;;;;;37.25;33.25;;;;;14.30;32.55;102544.22;5024105;28;45396;-73
2022/03/23 08:57:31;;;;;;;;;42.50;33.00;;;;;14.38;32.18;102540.97;5029501;28;45496;-72
2022/03/23 08:59:56;;;;;;;;;33.75;31.25;;;;;14.25;31.70;102502.81;5029064;28;45498;-72
2022/03/23 09:02:22;;;;;;;;;26.75;25.25;;;;;14.42;31.34;102511.53;5024589;28;45539;-71
2022/03/23 09:04:47;;;;;;;;;31.75;28.50;;;;;14.53;31.80;102540.66;5027355;28;45502;-72
2022/03/23 09:07:12;;;;;;;;;29.25;28.75;;;;;14.63;31.07;102549.13;5012933;28;46031;-71
2022/03/23 09:09:38;;;;;;;;;48.75;36.50;;;;;14.72;31.08;102555.78;5025131;28;45544;-72
2022/03/23 09:12:03;;;;;;;;;43.75;31.75;;;;;14.76;31.25;102537.06;5029132;28;45454;-72
2022/03/23 09:14:29;;;;;;;;;41.50;33.00;;;;;14.71;30.59;102520.75;5034342;28;45509;-72
2022/03/23 09:16:54;;;;;;;;;34.50;30.25;;;;;14.75;30.12;102520.03;5017696;28;47567;-72
2022/03/23 09:19:22;;;;;;;;;31.00;26.50;;;;;14.97;29.99;102540.56;5023343;28;45438;-73
2022/03/23 09:21:48;;;;;;;;;36.50;28.75;;;;;15.09;30.07;102542.78;5020046;28;45547;-73
2022/03/23 09:24:15;;;;;;;;;25.00;24.00;;;;;15.18;29.65;102539.50;5023244;28;45636;-71
2022/03/23 09:26:40;;;;;;;;;31.25;25.75;;;;;15.31;29.33;102525.66;5025372;28;47106;-72
2022/03/23 09:29:07;;;;;;;;;32.75;27.75;;;;;15.42;29.65;102517.94;5016004;28;45401;-72
2022/03/23 09:31:34;;;;;;;;;29.75;26.25;;;;;15.66;28.80;102534.94;5032410;28;45472;-71
2022/03/23 09:34:02;;;;;;;;;32.00;29.75;;;;;15.79;29.34;102530.03;5031312;28;45463;-72
2022/03/23 09:39:12;;;;;;;;;30.75;27.50;;;;;16.00;27.92;102537.88;5027901;28;45464;-73
2022/03/23 09:41:38;;;;;;;;;26.00;22.75;;;;;15.92;28.18;102534.94;5028766;28;45360;-71
2022/03/23 09:44:05;;;;;;;;;32.25;30.00;;;;;16.10;28.76;102539.09;5033976;28;45456;-71
2022/03/23 09:46:32;;;;;;;;;33.00;27.50;;;;;16.02;28.12;102517.31;5012585;28;47307;-72
2022/03/23 09:48:57;;;;;;;;;25.00;23.00;;;;;16.11;27.60;102525.66;5031649;28;45322;-71
2022/03/23 09:51:24;;;;;;;;;28.00;23.00;;;;;16.07;27.18;102498.56;5016507;28;45364;-72
2022/03/23 09:53:50;;;;;;;;;22.00;20.00;;;;;16.14;27.35;102514.06;5022995;28;45602;-73
2022/03/23 09:56:16;;;;;;;;;27.00;24.75;;;;;16.46;26.77;102541.13;5023896;28;46412;-72
2022/03/23 09:58:42;;;;;;;;;35.75;28.75;;;;;16.39;26.68;102508.56;5027813;28;45564;-73
2022/03/23 10:01:29;;;;;;;;;28.25;25.75;;;;;16.77;26.56;102534.88;5029327;28;45453;-72
2022/03/23 10:04:27;;;;;;;;;28.50;26.50;;;;;16.88;27.27;102529.84;5033480;28;45464;-72
2022/03/23 10:07:26;;;;;;;;;33.00;28.25;;;;;16.95;26.45;102532.75;5027676;28;46454;-71
2022/03/23 10:10:19;;;;;;;;;25.25;23.75;;;;;17.07;26.25;102534.88;5030246;28;45521;-70
2022/03/23 10:13:22;;;;;;;;;26.25;23.00;;;;;17.24;26.23;102534.44;5031614;28;45425;-72
2022/03/23 10:16:13;;;;;;;;;26.50;23.25;;;;;17.33;25.50;102526.59;5027460;28;45539;-73
2022/03/23 10:18:51;;;;;;;;;34.25;27.25;;;;;17.30;26.23;102531.91;5027514;28;46160;-72
2022/03/23 10:21:18;;;;;;;;;28.00;22.50;;;;;17.45;26.25;102529.59;5025378;28;45448;-72
2022/03/23 10:23:59;;;;;;;;;30.75;26.25;;;;;17.71;26.08;102526.66;5014686;28;45360;-73
2022/03/23 10:26:28;;;;;;;;;32.75;32.75;;;;;17.65;25.96;102469.75;5010640;28;45383;-73
2022/03/23 10:28:55;;;;;;;;;27.50;26.25;;;;;18.13;26.28;102520.53;5033517;28;45481;-71
2022/03/23 10:31:23;;;;;;;;;28.25;25.25;;;;;18.28;25.45;102508.22;5033124;28;45523;-74
2022/03/23 10:34:07;;;;;;;;;34.75;23.75;;;;;18.38;24.85;102515.69;5032726;28;45446;-72
2022/03/23 10:36:55;;;;;;;;;27.00;21.00;;;;;18.37;24.92;102508.44;5032833;28;45458;-74
2022/03/23 10:39:27;;;;;;;;;19.75;19.75;;;;;18.43;24.47;102514.00;5025724;28;45391;-73
2022/03/23 10:42:06;;;;;;;;;26.00;23.75;;;;;18.37;23.85;102503.94;5026671;28;45394;-71
2022/03/23 10:44:31;;;;;;;;;27.25;22.25;;;;;18.28;24.87;102494.69;5028436;28;45497;-73
2022/03/23 10:46:58;;;;;;;;;23.25;22.00;;;;;18.27;24.24;102510.03;5032790;28;45497;-73
2022/03/23 10:49:33;;;;;;;;;35.75;30.50;;;;;18.33;24.75;102501.13;5007388;28;47395;-72
2022/03/23 10:52:14;;;;;;;;;25.50;23.00;;;;;18.24;24.36;102469.38;5021643;28;45573;-72
2022/03/23 10:55:13;;;;;;;;;25.00;24.00;;;;;18.48;24.11;102501.47;5029468;28;45526;-72
2022/03/23 10:57:44;;;;;;;;;29.50;22.25;;;;;18.57;24.10;102487.22;4972396;28;45687;-72
2022/03/23 11:00:17;;;;;;;;;27.75;22.50;;;;;18.37;23.89;102471.47;5025191;28;45587;-73
2022/03/23 11:02:47;;;;;;;;;22.00;21.75;;;;;18.20;24.31;102435.03;5029686;28;45506;-74
2022/03/23 11:05:31;;;;;;;;;20.75;20.00;;;;;18.53;23.23;102488.94;5012425;28;45420;-75
2022/03/23 11:08:27;;;;;;;;;20.00;19.50;;;;;18.58;23.03;102486.34;5010880;28;45442;-76
2022/03/23 11:16:37;;;;;;;;;27.00;25.00;;;;;18.13;21.91;102409.63;5026179;28;45509;-77
2022/03/23 11:19:11;;;;;;;;;18.00;18.00;;;;;18.20;20.99;102402.56;5019713;28;45715;-77
2022/03/23 11:22:01;;;;;;;;;23.00;20.75;;;;;18.65;21.61;102479.25;5022320;28;46151;-78
2022/03/23 11:24:40;;;;;;;;;26.75;24.75;;;;;18.68;21.77;102473.91;5014746;28;45505;-76
2022/03/23 11:27:11;;;;;;;;;1.00;0.00;;;;;18.68;22.15;102471.22;5026761;28;45503;-76
2022/03/23 11:29:39;;;;;;;;;29.00;23.25;;;;;18.23;22.14;102383.66;5032838;28;45489;-74